Pagrindinis puslapis
METAR-TAF:

METAR-TAF

Oro uostai :

Salala, Omanas

platuma: 17-02N, ilguma: 054-05E, Aukštis: 20 m

Dabartinis oras

Ataskaita buvo paskelbta 1 valandą ir 23 minutes, ne 13:50 UTC
Vėjas 10 kt iš Pietų
Temperatūra 30°C
Drėgmė 75%
Slėgis 1007 hPa
Matomumas 10 km arba daugiau
Mažai debesys ne aukštis 2500 ft

METAR: OOSA 251350Z 18010KT 9999 FEW025 30/25 Q1007 NOSIG

Laikas: 19:13 (15:13 UTC)

Prognozė

Ataskaita buvo paskelbta 3 valandos ir 33 minutes, ne 11:40 UTC
Prognozė galioja nuo 25 metu 12 UTC su 26 metu 18 UTC
Vėjas 13 kt iš Pietų
Matomumas 10 km arba daugiau
Mažai debesys ne aukštis 2500 ft
Tapsmas
nuo 25 metu 19 UTC su 25 metu 21 UTC
Vėjas 3 kt nuo kintamojo kryptimis
Tapsmas
nuo 26 metu 05 UTC su 26 metu 07 UTC
Vėjas 13 kt iš Pietų

TAF: OOSA 251140Z 2512/2618 19013KT 9999 FEW025 BECMG 2519/2521 VRB03KT BECMG 2605/2607 19013KT

Orai ataskaitas ir orų prognozės (METAR, TAF).

turimą stotys yra geltonos ir raudonos taškus žemėlapyje.

Perkelti pele per norėdami pamatyti stoties vardą.

Tada spustelėkite, norėdami matyti oro stebėjimo ir prognozės.

Norėdami pakeisti žemėlapį: spustelėkite ant žalios mygtukų su juodo kryžiaus žemyn,; žalią mygtuką su brūkšneliu, jei norite nutolinti; arba žalių rodyklių gretimoms žemėlapius.


METAR-TAF: